Terminal Aerodrome Forecast
Issued by NWS

Home | Current Version | Previous Version | Text Only | Print | Product List | Glossary On
Versions: 1 2 3 4 5 6 7 8 9 10 11 12 13 14 15 16 17 18 19 20 21 22 23 24 25 26 27 28 29 30 31
000
FTUS42 TJSJ 270520
TAFJBQ
TAF
TJBQ 270520Z 2706/2806 VRB03KT P6SM SCT030 BKN040
     FM271400 03007KT P6SM SCT035 SCT050
     FM271800 03007KT P6SM VCTS SCT025CB BKN045
     FM280200 07012KT P6SM SCT030 BKN050
     AMD NOT SKED 2702/2711=

USA.gov is the U.S. government's official web portal to all federal, state and local government web resources and services.